This is the latest recevied weather packets stored in our database for station/object WMSA. If no packets are shown the sender has not sent any weather packets the latest 10 day(s).
| Time | Temp. | Humidity | Pressure | Rain* | Wind** | Luminosity | Snow |
|---|---|---|---|---|---|---|---|
| 1788142454 | 86° F | 66% | 759.8 mmHg | - | - | - | - |
| 1788138861 | 82° F | 78% | 759.8 mmHg | - | - | - | - |
| 1788135254 | 80° F | 78% | 759.1 mmHg | - | - | - | - |
| 1788131653 | 80° F | 78% | 758.3 mmHg | - | - | - | - |
| 1788128054 | 80° F | 78% | 758.3 mmHg | - | - | - | - |
| 1788124455 | 80° F | 78% | 758.3 mmHg | - | - | - | - |
| 1788120860 | 80° F | 83% | 758.3 mmHg | - | - | - | - |
| 1788117253 | 82° F | 83% | 758.3 mmHg | - | - | - | - |
| 1788113653 | 84° F | 79% | 758.3 mmHg | - | - | - | - |
| 1788113046 | 84° F | 79% | 759.1 mmHg | - | - | - | - |
| 1788110054 | 84° F | 79% | 759.1 mmHg | - | - | - | - |
| 1788106459 | 84° F | 79% | 759.1 mmHg | - | - | - | - |
| 1788102853 | 86° F | 74% | 758.3 mmHg | - | - | - | - |
| 1788099253 | 87° F | 62% | 758.3 mmHg | - | - | - | - |
| 1788095654 | 87° F | 58% | 757.6 mmHg | - | - | - | - |
| 1788092057 | 87° F | 62% | 757.6 mmHg | - | - | - | - |
| 1788088452 | 89° F | 59% | 756.1 mmHg | - | - | - | - |
| 1788084852 | 89° F | 62% | 756.1 mmHg | - | - | - | - |
| 1788081254 | 91° F | 55% | 756.1 mmHg | - | - | - | - |
| 1788077657 | 95° F | 49% | 756.1 mmHg | - | - | - | - |
| 1788074052 | 93° F | 56% | 756.8 mmHg | - | - | - | - |
| 1788070452 | 93° F | 56% | 757.6 mmHg | - | - | - | - |
| 1788066853 | 93° F | 56% | 758.3 mmHg | - | - | - | - |
| 1788063251 | 91° F | 59% | 759.1 mmHg | - | - | - | - |
| 1788059657 | 89° F | 62% | 759.1 mmHg | - | - | - | - |
* Rain since midnight (hover to see other rain measurements)
** Current wind speed in m/s (hover to see current wind gust speed)